createdAt,value
2019-05-22T00:02:35.391Z,16.57
2019-05-22T00:05:18.402Z,17.60
2019-05-22T00:07:48.833Z,17.00
2019-05-22T00:10:24.568Z,20.13
2019-05-22T00:12:54.984Z,18.77
2019-05-22T00:15:24.924Z,19.10
2019-05-22T00:17:54.842Z,19.13
2019-05-22T00:20:24.772Z,18.20
2019-05-22T00:22:55.638Z,17.73
2019-05-22T00:25:26.490Z,16.63
2019-05-22T00:27:59.540Z,17.10
2019-05-22T00:30:32.308Z,17.00
2019-05-22T00:33:02.859Z,15.50
2019-05-22T00:35:34.856Z,15.40
2019-05-22T00:38:06.954Z,15.70
2019-05-22T00:40:42.400Z,14.33
2019-05-22T00:43:14.551Z,13.57
2019-05-22T00:45:45.904Z,12.40
2019-05-22T00:48:18.504Z,11.37
2019-05-22T00:50:57.150Z,9.50
2019-05-22T00:53:48.470Z,9.77
2019-05-22T00:56:37.016Z,9.23
2019-05-22T00:59:13.984Z,8.90
2019-05-22T01:01:46.024Z,8.63
2019-05-22T01:04:20.331Z,9.07
2019-05-22T01:06:54.837Z,8.80
2019-05-22T01:09:31.723Z,9.33
2019-05-22T01:12:03.347Z,9.30
2019-05-22T01:14:42.768Z,8.77
2019-05-22T01:17:07.564Z,10.60
2019-05-22T01:19:39.182Z,8.60
2019-05-22T01:22:10.634Z,9.40
2019-05-22T01:24:41.613Z,9.60
2019-05-22T01:27:12.758Z,10.00
2019-05-22T01:29:43.771Z,10.90
2019-05-22T01:32:21.012Z,11.10
2019-05-22T01:34:50.985Z,10.30
2019-05-22T01:37:20.778Z,8.83
2019-05-22T01:39:56.367Z,10.40
2019-05-22T01:42:33.854Z,10.00
2019-05-22T01:45:07.015Z,9.77
2019-05-22T01:48:05.435Z,9.90
2019-05-22T01:50:47.608Z,8.77
2019-05-22T01:53:21.580Z,9.47
2019-05-22T01:55:58.341Z,8.87
2019-05-22T01:58:31.176Z,7.80
2019-05-22T02:01:03.106Z,7.50
2019-05-22T02:03:34.400Z,7.80
2019-05-22T02:06:07.091Z,7.33
2019-05-22T02:08:41.487Z,6.10
2019-05-22T02:11:14.228Z,7.10
2019-05-22T02:13:51.914Z,6.50
2019-05-22T02:16:21.906Z,5.33
2019-05-22T02:18:52.452Z,5.67
2019-05-22T02:21:23.812Z,6.60
2019-05-22T02:23:54.474Z,6.87
2019-05-22T02:26:24.723Z,6.70
2019-05-22T02:28:58.474Z,6.47
2019-05-22T02:31:30.620Z,6.80
2019-05-22T02:34:02.518Z,6.80
2019-05-22T02:36:34.713Z,6.50
2019-05-22T02:39:11.223Z,6.80
2019-05-22T02:41:46.078Z,6.10
2019-05-22T02:44:16.397Z,6.57
2019-05-22T02:46:47.071Z,5.53
2019-05-22T02:49:18.302Z,5.80
2019-05-22T02:51:48.657Z,5.83
2019-05-22T02:54:18.673Z,6.17
2019-05-22T02:56:48.463Z,6.13
2019-05-22T02:59:18.817Z,6.30
2019-05-22T03:01:49.573Z,6.50
2019-05-22T03:04:19.576Z,6.77
2019-05-22T03:06:51.013Z,7.03
2019-05-22T03:09:24.519Z,6.60
2019-05-22T03:11:59.153Z,7.33
2019-05-22T03:14:30.843Z,7.37
2019-05-22T03:17:05.347Z,7.20
2019-05-22T03:19:41.145Z,6.83
2019-05-22T03:22:24.247Z,7.60
2019-05-22T03:24:55.257Z,7.07
2019-05-22T03:27:42.463Z,7.20
2019-05-22T03:30:17.743Z,6.83
2019-05-22T03:32:48.184Z,7.33
2019-05-22T03:35:20.454Z,8.10
2019-05-22T03:37:53.146Z,7.30
2019-05-22T03:40:23.533Z,7.90
2019-05-22T03:42:54.278Z,7.90
2019-05-22T03:45:25.305Z,7.50
2019-05-22T03:47:57.805Z,7.73
2019-05-22T03:50:29.564Z,8.27
2019-05-22T03:53:06.307Z,8.17
2019-05-22T03:55:36.805Z,7.80
2019-05-22T03:58:07.461Z,7.97
2019-05-22T04:00:43.196Z,7.40
2019-05-22T04:03:11.341Z,7.80
2019-05-22T04:05:41.049Z,7.30
2019-05-22T04:08:13.002Z,7.60
2019-05-22T04:10:55.801Z,7.80
2019-05-22T04:13:25.876Z,7.80
2019-05-22T04:15:55.778Z,7.30
2019-05-22T04:18:28.295Z,7.37
2019-05-22T04:20:59.168Z,8.50
2019-05-22T04:23:29.181Z,7.17
2019-05-22T04:26:01.175Z,7.37
2019-05-22T04:28:31.897Z,7.27
2019-05-22T04:31:02.438Z,6.13
2019-05-22T04:33:33.117Z,5.80
2019-05-22T04:36:04.702Z,6.60
2019-05-22T04:38:35.191Z,6.43
2019-05-22T04:41:06.452Z,7.70
2019-05-22T04:43:36.649Z,7.37
2019-05-22T04:46:08.278Z,7.53
2019-05-22T04:48:38.312Z,5.90
2019-05-22T04:51:26.414Z,7.27
2019-05-22T04:53:57.985Z,5.90
2019-05-22T04:56:29.170Z,7.57
2019-05-22T04:59:01.213Z,7.50
2019-05-22T05:01:31.583Z,5.90
2019-05-22T05:04:02.853Z,6.77
2019-05-22T05:06:36.120Z,7.30
2019-05-22T05:09:09.887Z,5.80
2019-05-22T05:11:43.077Z,4.50
2019-05-22T05:14:13.454Z,5.13
2019-05-22T05:16:43.602Z,4.83
2019-05-22T05:19:13.473Z,4.23
2019-05-22T05:21:43.560Z,5.03
2019-05-22T05:24:13.494Z,4.73
2019-05-22T05:26:44.646Z,4.50
2019-05-22T05:29:26.813Z,4.00
2019-05-22T05:31:58.532Z,4.23
2019-05-22T05:34:39.783Z,4.63
2019-05-22T05:37:10.114Z,4.23
2019-05-22T05:40:18.970Z,4.33
2019-05-22T05:42:49.363Z,4.50
2019-05-22T05:45:22.433Z,4.33
2019-05-22T05:47:52.506Z,5.10
2019-05-22T05:50:37.829Z,5.77
2019-05-22T05:52:56.528Z,4.80
2019-05-22T05:55:30.036Z,4.50
2019-05-22T05:58:28.647Z,4.60
2019-05-22T06:01:09.390Z,4.90
2019-05-22T06:03:41.698Z,4.63
2019-05-22T06:07:11.343Z,5.03
2019-05-22T06:09:42.035Z,4.30
2019-05-22T06:12:13.079Z,4.37
2019-05-22T06:14:42.841Z,5.13
2019-05-22T06:17:58.949Z,4.97
2019-05-22T06:20:30.743Z,4.53
2019-05-22T06:23:46.033Z,5.30
2019-05-22T06:26:48.149Z,5.40
2019-05-22T06:29:21.780Z,4.63
2019-05-22T06:32:43.050Z,5.00
2019-05-22T06:35:14.902Z,4.97
2019-05-22T06:37:57.727Z,4.90
2019-05-22T06:40:29.441Z,5.80
2019-05-22T06:43:50.151Z,5.30
2019-05-22T06:46:45.843Z,4.13
2019-05-22T06:49:41.449Z,4.97
2019-05-22T06:52:12.588Z,6.10
2019-05-22T06:54:42.555Z,4.70
2019-05-22T06:57:30.361Z,5.30
2019-05-22T07:00:24.111Z,5.20
2019-05-22T07:02:53.948Z,5.27
2019-05-22T07:05:25.271Z,5.10
2019-05-22T07:07:55.540Z,5.30
2019-05-22T07:10:25.893Z,4.60
2019-05-22T07:12:56.341Z,4.90
2019-05-22T07:15:39.521Z,4.50
2019-05-22T07:18:12.933Z,4.70
2019-05-22T07:20:42.633Z,3.73
2019-05-22T07:23:14.979Z,4.17
2019-05-22T07:25:46.349Z,3.80
2019-05-22T07:28:18.193Z,4.00
2019-05-22T07:30:48.770Z,4.07
2019-05-22T07:33:19.680Z,4.10
2019-05-22T07:36:08.671Z,4.27
2019-05-22T07:38:21.855Z,4.63
2019-05-22T07:40:51.944Z,4.60
2019-05-22T07:43:23.197Z,4.33
2019-05-22T07:45:55.025Z,4.40
2019-05-22T07:48:26.545Z,4.23
2019-05-22T07:50:57.730Z,4.50
2019-05-22T07:53:28.601Z,4.70
2019-05-22T07:55:59.458Z,4.57
2019-05-22T07:58:31.257Z,4.40
2019-05-22T08:01:02.220Z,4.20
2019-05-22T08:03:32.545Z,4.30
2019-05-22T08:06:02.763Z,4.40
2019-05-22T08:08:36.006Z,4.10
2019-05-22T08:11:06.471Z,4.83
2019-05-22T08:13:37.815Z,4.40
2019-05-22T08:16:08.502Z,4.20
2019-05-22T08:18:39.691Z,3.50
2019-05-22T08:21:11.649Z,4.10
2019-05-22T08:23:42.118Z,4.10
2019-05-22T08:26:14.793Z,3.73
2019-05-22T08:28:45.788Z,3.87
2019-05-22T08:31:17.260Z,3.17
2019-05-22T08:33:47.604Z,3.37
2019-05-22T08:36:17.682Z,3.40
2019-05-22T08:38:47.547Z,3.97
2019-05-22T08:41:22.284Z,4.10
2019-05-22T08:44:14.392Z,4.80
2019-05-22T08:46:24.420Z,3.67
2019-05-22T08:48:54.393Z,4.07
2019-05-22T08:51:24.706Z,4.50
2019-05-22T08:53:56.239Z,5.37
2019-05-22T08:56:26.290Z,4.03
2019-05-22T08:58:57.450Z,3.83
2019-05-22T09:01:28.277Z,4.20
2019-05-22T09:03:58.185Z,3.90
2019-05-22T09:06:27.964Z,4.20
2019-05-22T09:08:58.012Z,4.23
2019-05-22T09:11:27.667Z,3.80
2019-05-22T09:13:57.360Z,4.40
2019-05-22T09:16:27.214Z,4.30
2019-05-22T09:18:57.431Z,4.27
2019-05-22T09:21:27.559Z,5.10
2019-05-22T09:23:58.142Z,4.40
2019-05-22T09:26:28.486Z,4.40
2019-05-22T09:29:00.868Z,5.00
2019-05-22T09:31:30.698Z,4.40
2019-05-22T09:34:01.252Z,4.70
2019-05-22T09:36:31.846Z,4.30
2019-05-22T09:39:01.888Z,3.90
2019-05-22T09:41:32.271Z,4.17
2019-05-22T09:44:02.135Z,4.83
2019-05-22T09:46:32.615Z,4.57
2019-05-22T09:49:02.658Z,4.27
2019-05-22T09:51:32.759Z,3.80
2019-05-22T09:54:04.714Z,4.00
2019-05-22T09:56:35.332Z,3.70
2019-05-22T09:59:05.310Z,3.63
2019-05-22T10:01:35.047Z,4.00
2019-05-22T10:04:05.484Z,3.83
2019-05-22T10:06:35.395Z,3.50
2019-05-22T10:09:07.319Z,3.97
2019-05-22T10:11:37.624Z,4.07
2019-05-22T10:14:08.634Z,3.30
2019-05-22T10:16:40.046Z,3.90
2019-05-22T10:19:09.852Z,3.80
2019-05-22T10:21:40.445Z,3.60
2019-05-22T10:24:10.184Z,3.03
2019-05-22T10:26:40.540Z,3.20
2019-05-22T10:29:10.396Z,3.07
2019-05-22T10:31:40.572Z,4.03
2019-05-22T10:34:10.318Z,3.60
2019-05-22T10:36:43.110Z,3.90
2019-05-22T10:39:11.987Z,3.50
2019-05-22T10:41:42.137Z,3.87
2019-05-22T10:44:12.148Z,4.07
2019-05-22T10:46:41.913Z,3.90
2019-05-22T10:49:11.676Z,3.80
2019-05-22T10:51:41.623Z,4.03
2019-05-22T10:54:11.399Z,3.83
2019-05-22T10:56:41.132Z,3.97
2019-05-22T10:59:10.940Z,3.80
2019-05-22T11:01:40.789Z,5.93
2019-05-22T11:04:11.588Z,4.30
2019-05-22T11:06:41.489Z,3.67
2019-05-22T11:09:11.899Z,4.97
2019-05-22T11:11:42.630Z,4.43
2019-05-22T11:14:12.889Z,4.80
2019-05-22T11:16:42.845Z,4.87
2019-05-22T11:19:12.629Z,4.33
2019-05-22T11:21:43.428Z,5.00
2019-05-22T11:24:14.128Z,5.00
2019-05-22T11:26:44.385Z,5.43
2019-05-22T11:29:14.846Z,5.47
2019-05-22T11:31:44.874Z,5.40
2019-05-22T11:34:14.781Z,5.73
2019-05-22T11:36:44.574Z,5.43
2019-05-22T11:39:16.773Z,5.73
2019-05-22T11:41:47.566Z,6.10
2019-05-22T11:44:17.587Z,6.30
2019-05-22T11:46:47.502Z,6.90
2019-05-22T11:49:17.208Z,6.83
2019-05-22T11:51:48.516Z,7.13
2019-05-22T11:54:18.264Z,7.83
2019-05-22T11:56:48.113Z,7.20
2019-05-22T11:59:18.298Z,8.17
2019-05-22T12:01:48.138Z,8.33
2019-05-22T12:04:18.351Z,9.10
2019-05-22T12:06:52.792Z,8.63
2019-05-22T12:09:21.869Z,9.43
2019-05-22T12:11:52.419Z,8.90
2019-05-22T12:14:23.044Z,8.13
2019-05-22T12:16:53.506Z,9.23
2019-05-22T12:19:23.817Z,10.40
2019-05-22T12:21:56.739Z,8.70
2019-05-22T12:24:36.440Z,9.20
2019-05-22T12:26:59.241Z,10.03
2019-05-22T12:29:29.502Z,11.10
2019-05-22T12:31:59.742Z,10.10
2019-05-22T12:34:29.946Z,9.73
2019-05-22T12:36:59.970Z,10.10
2019-05-22T12:39:30.249Z,8.93
2019-05-22T12:42:00.618Z,9.50
2019-05-22T12:44:30.705Z,29.00
2019-05-22T12:47:00.779Z,10.17
2019-05-22T12:49:31.595Z,10.63
2019-05-22T12:52:01.912Z,10.40
2019-05-22T12:54:46.066Z,9.83
2019-05-22T12:57:06.246Z,11.03
2019-05-22T12:59:36.638Z,10.23
2019-05-22T13:02:07.435Z,11.93
2019-05-22T13:04:37.679Z,10.40
2019-05-22T13:07:07.549Z,10.10
2019-05-22T13:09:38.095Z,10.07
2019-05-22T13:12:08.747Z,11.47
2019-05-22T13:14:38.619Z,10.73
2019-05-22T13:17:09.561Z,10.27
2019-05-22T13:19:40.805Z,11.83
2019-05-22T13:22:14.425Z,10.17
2019-05-22T13:24:45.918Z,9.90
2019-05-22T13:27:17.722Z,10.20
2019-05-22T13:29:50.008Z,12.83
2019-05-22T13:32:20.761Z,10.80
2019-05-22T13:34:51.220Z,13.63
2019-05-22T13:37:21.246Z,9.63
2019-05-22T13:40:27.618Z,11.83
2019-05-22T13:42:52.394Z,10.50
2019-05-22T13:45:29.250Z,11.23
2019-05-22T13:48:01.888Z,10.20
2019-05-22T13:50:32.880Z,10.73
2019-05-22T13:53:04.589Z,10.30
2019-05-22T13:55:48.078Z,11.07
2019-05-22T13:58:20.548Z,11.50
2019-05-22T14:00:51.295Z,9.90
2019-05-22T14:03:22.403Z,11.07
2019-05-22T14:05:54.428Z,10.50
2019-05-22T14:08:24.753Z,9.43
2019-05-22T14:10:55.628Z,10.93
2019-05-22T14:13:41.127Z,10.37
2019-05-22T14:16:12.237Z,11.27
2019-05-22T14:18:42.058Z,10.97
2019-05-22T14:21:11.913Z,11.07
2019-05-22T14:23:41.806Z,10.67
2019-05-22T14:26:19.042Z,12.03
2019-05-22T14:28:49.876Z,11.10
2019-05-22T14:31:19.759Z,11.17
2019-05-22T14:33:49.826Z,10.20
2019-05-22T14:36:19.692Z,12.30
2019-05-22T14:38:49.476Z,9.67
2019-05-22T14:41:19.421Z,10.20
2019-05-22T14:43:49.376Z,11.10
2019-05-22T14:46:19.323Z,11.07
2019-05-22T14:48:49.474Z,10.80
2019-05-22T14:51:20.273Z,10.50
2019-05-22T14:53:56.531Z,10.80
2019-05-22T14:56:27.234Z,11.20
2019-05-22T14:58:57.017Z,10.47
2019-05-22T15:01:28.264Z,11.20
2019-05-22T15:03:58.800Z,11.40
2019-05-22T15:06:28.834Z,10.70
2019-05-22T15:09:01.400Z,10.33
2019-05-22T15:11:32.624Z,11.57
2019-05-22T15:14:02.487Z,10.70
2019-05-22T15:16:32.689Z,10.23
2019-05-22T15:19:02.462Z,10.53
2019-05-22T15:21:32.740Z,10.20
2019-05-22T15:24:03.555Z,10.30
2019-05-22T15:26:33.719Z,9.57
2019-05-22T15:29:04.501Z,9.47
2019-05-22T15:31:37.269Z,10.67
2019-05-22T15:34:07.908Z,8.50
2019-05-22T15:36:39.604Z,10.10
2019-05-22T15:39:11.808Z,8.20
2019-05-22T15:41:41.649Z,9.93
2019-05-22T15:44:11.674Z,9.33
2019-05-22T15:46:43.873Z,8.77
2019-05-22T15:49:15.328Z,8.40
2019-05-22T15:51:47.812Z,8.90
2019-05-22T15:54:19.140Z,9.93
2019-05-22T15:56:50.527Z,8.73
2019-05-22T15:59:22.451Z,9.13
2019-05-22T16:01:53.168Z,9.40
2019-05-22T16:04:23.290Z,8.20
2019-05-22T16:06:53.339Z,8.80
2019-05-22T16:09:25.662Z,8.90
2019-05-22T16:12:00.687Z,8.70
2019-05-22T16:14:31.644Z,8.07
2019-05-22T16:17:02.478Z,8.80
2019-05-22T16:19:33.380Z,8.70
2019-05-22T16:22:08.852Z,8.70
2019-05-22T16:24:41.661Z,8.40
2019-05-22T16:27:14.095Z,8.20
2019-05-22T16:29:44.594Z,7.47
2019-05-22T16:32:17.787Z,8.13
2019-05-22T16:34:48.297Z,7.13
2019-05-22T16:37:18.665Z,8.00
2019-05-22T16:39:50.509Z,8.43
2019-05-22T16:42:21.850Z,8.03
2019-05-22T16:44:51.685Z,6.93
2019-05-22T16:47:22.720Z,6.87
2019-05-22T16:49:53.657Z,7.97
2019-05-22T16:52:25.368Z,6.77
2019-05-22T16:54:55.812Z,7.60
2019-05-22T16:57:26.331Z,7.50
2019-05-22T16:59:56.235Z,6.60
2019-05-22T17:02:27.098Z,6.83
2019-05-22T17:04:56.828Z,5.83
2019-05-22T17:07:28.283Z,6.53
2019-05-22T17:10:00.135Z,6.50
2019-05-22T17:12:30.262Z,5.73
2019-05-22T17:15:01.456Z,5.93
2019-05-22T17:17:31.514Z,6.20
2019-05-22T17:20:02.351Z,6.20
2019-05-22T17:22:32.386Z,5.80
2019-05-22T17:25:03.114Z,5.97
2019-05-22T17:27:33.096Z,6.27
2019-05-22T17:30:04.750Z,6.50
2019-05-22T17:32:35.143Z,5.60
2019-05-22T17:35:06.515Z,6.13
2019-05-22T17:37:37.397Z,5.23
2019-05-22T17:40:09.471Z,4.80
2019-05-22T17:42:41.055Z,5.30
2019-05-22T17:45:12.970Z,4.93
2019-05-22T17:47:43.943Z,6.10
2019-05-22T17:50:26.253Z,5.23
2019-05-22T17:52:48.387Z,5.77
2019-05-22T17:55:21.139Z,5.50
2019-05-22T17:57:51.079Z,5.40
2019-05-22T18:00:27.138Z,6.20
2019-05-22T18:02:58.711Z,5.27
2019-05-22T18:05:29.354Z,6.40
2019-05-22T18:07:59.522Z,5.90
2019-05-22T18:10:32.733Z,5.43
2019-05-22T18:13:03.280Z,6.20
2019-05-22T18:15:34.087Z,5.53
2019-05-22T18:18:05.392Z,5.30
2019-05-22T18:20:43.497Z,6.43
2019-05-22T18:23:07.463Z,5.83
2019-05-22T18:25:38.498Z,5.80
2019-05-22T18:28:10.211Z,4.40
2019-05-22T18:30:41.658Z,5.57
2019-05-22T18:33:12.125Z,5.60
2019-05-22T18:35:42.340Z,5.20
2019-05-22T18:38:12.202Z,5.70
2019-05-22T18:40:42.160Z,4.90
2019-05-22T18:43:12.242Z,5.43
2019-05-22T18:45:42.032Z,4.00
2019-05-22T18:48:12.070Z,3.50
2019-05-22T18:50:42.427Z,4.87
2019-05-22T18:53:12.290Z,4.50
2019-05-22T18:55:41.964Z,4.43
2019-05-22T18:58:12.285Z,5.17
2019-05-22T19:00:42.059Z,4.60
2019-05-22T19:03:11.807Z,4.10
2019-05-22T19:05:42.512Z,4.10
2019-05-22T19:08:13.326Z,4.00
2019-05-22T19:10:43.131Z,4.37
2019-05-22T19:13:14.632Z,4.50
2019-05-22T19:15:44.635Z,3.73
2019-05-22T19:18:14.447Z,4.13
2019-05-22T19:20:44.430Z,3.53
2019-05-22T19:23:14.271Z,4.73
2019-05-22T19:25:43.978Z,3.53
2019-05-22T19:28:14.266Z,3.10
2019-05-22T19:30:44.046Z,3.03
2019-05-22T19:33:15.047Z,2.93
2019-05-22T19:35:46.081Z,3.60
2019-05-22T19:38:16.183Z,3.60
2019-05-22T19:40:46.124Z,3.10
2019-05-22T19:43:16.748Z,3.50
2019-05-22T19:45:47.274Z,3.70
2019-05-22T19:48:18.888Z,3.50
2019-05-22T19:50:49.904Z,3.37
2019-05-22T19:53:20.116Z,3.57
2019-05-22T19:55:51.178Z,2.80
2019-05-22T19:58:22.211Z,3.83
2019-05-22T20:00:52.584Z,3.13
2019-05-22T20:03:24.276Z,3.20
2019-05-22T20:05:55.157Z,4.30
2019-05-22T20:08:25.238Z,3.23
2019-05-22T20:10:54.995Z,4.07
2019-05-22T20:13:25.365Z,3.53
2019-05-22T20:15:55.219Z,2.93
2019-05-22T20:18:25.379Z,3.20
2019-05-22T20:20:56.475Z,3.73
2019-05-22T20:23:35.792Z,3.00
2019-05-22T20:25:58.965Z,3.80
2019-05-22T20:28:29.563Z,3.40
2019-05-22T20:31:00.616Z,3.83
2019-05-22T20:33:30.699Z,3.23
2019-05-22T20:36:00.912Z,3.00
2019-05-22T20:38:31.127Z,3.00
2019-05-22T20:41:01.461Z,2.80
2019-05-22T20:43:32.977Z,3.30
2019-05-22T20:46:03.932Z,2.70
2019-05-22T20:48:33.988Z,3.37
2019-05-22T20:51:05.664Z,3.20
2019-05-22T20:53:53.027Z,3.43
2019-05-22T20:56:11.187Z,3.50
2019-05-22T20:58:43.231Z,4.00
2019-05-22T21:01:14.986Z,4.47
2019-05-22T21:03:45.096Z,3.70
2019-05-22T21:06:17.522Z,3.50
2019-05-22T21:08:47.900Z,4.03
2019-05-22T21:11:20.466Z,3.70
2019-05-22T21:13:50.830Z,4.00
2019-05-22T21:16:20.689Z,3.43
2019-05-22T21:18:52.797Z,3.67
2019-05-22T21:21:24.984Z,4.20
2019-05-22T21:24:09.547Z,3.57
2019-05-22T21:26:27.741Z,3.90
2019-05-22T21:28:57.594Z,3.20
2019-05-22T21:31:27.540Z,2.60
2019-05-22T21:33:57.685Z,2.73
2019-05-22T21:36:29.687Z,3.17
2019-05-22T21:39:00.107Z,2.90
2019-05-22T21:41:30.403Z,2.80
2019-05-22T21:44:00.342Z,2.80
2019-05-22T21:46:30.398Z,3.20
2019-05-22T21:49:00.135Z,2.63
2019-05-22T21:51:30.629Z,3.63
2019-05-22T21:54:01.257Z,3.77
2019-05-22T21:56:31.178Z,3.00
2019-05-22T21:59:01.354Z,3.50
2019-05-22T22:01:38.357Z,3.57
2019-05-22T22:04:18.021Z,2.70
2019-05-22T22:06:55.263Z,3.00
2019-05-22T22:09:41.173Z,2.87
2019-05-22T22:12:13.127Z,3.17
2019-05-22T22:14:45.270Z,2.57
2019-05-22T22:17:16.577Z,2.77
2019-05-22T22:19:48.947Z,2.87
2019-05-22T22:22:28.184Z,3.67
2019-05-22T22:24:58.886Z,3.30
2019-05-22T22:27:29.367Z,3.50
2019-05-22T22:30:00.252Z,4.70
2019-05-22T22:32:44.265Z,6.53
2019-05-22T22:35:15.820Z,7.27
2019-05-22T22:37:46.448Z,4.30
2019-05-22T22:40:21.937Z,4.20
2019-05-22T22:42:53.145Z,3.77
2019-05-22T22:45:41.509Z,3.80
2019-05-22T22:48:13.582Z,4.03
2019-05-22T22:50:43.376Z,3.40
2019-05-22T22:53:14.769Z,3.70
2019-05-22T22:55:45.131Z,4.33
2019-05-22T22:58:17.792Z,4.40
2019-05-22T23:00:51.695Z,4.10
2019-05-22T23:03:24.259Z,3.80
2019-05-22T23:05:54.600Z,3.47
2019-05-22T23:08:29.476Z,4.07
2019-05-22T23:11:00.074Z,3.87
2019-05-22T23:13:30.755Z,3.47
2019-05-22T23:16:02.082Z,3.37
2019-05-22T23:19:14.495Z,3.30
2019-05-22T23:21:44.643Z,3.47
2019-05-22T23:24:15.832Z,3.47
2019-05-22T23:26:47.389Z,3.37
2019-05-22T23:29:17.577Z,3.30
2019-05-22T23:31:48.440Z,3.20
2019-05-22T23:34:18.855Z,3.13
2019-05-22T23:36:49.357Z,2.70
2019-05-22T23:39:20.322Z,2.80
2019-05-22T23:41:50.546Z,3.10
2019-05-22T23:44:21.511Z,2.57
2019-05-22T23:46:51.334Z,2.90
2019-05-22T23:49:21.336Z,3.37
2019-05-22T23:51:51.464Z,3.50
2019-05-22T23:54:21.546Z,3.00
2019-05-22T23:56:51.966Z,2.97
2019-05-22T23:59:24.157Z,2.90
